Avoca, Minnesota
Current Conditions -  °F | °C
As of 9:16 PM on Thursday 18 Dec 2014 (Local Time) from KDVP Reporting Station
Overcast Overcast  
Wind Chill: 25°   Ceiling: 1300
Heat Index: 25°   Visibility: 7mi
Dew Point: 24°   Wind: 0mph
Humidity: 96%   Direction: NA
Pressure: 30.18"   Gusts: NA
Location:  43.95°N, 95.65°W
Report Text: KDVP 190316Z AUTO 00000KT 7SM BKN013 BKN020 OVC026 M04/M04 A3018 RMK AO2 T10381043
Loading
Personal Weather Stations






























Interactive Weather Map New forecast layout! Learn more

10-Day Weather Forecast

Advertisements
Track Severe Weather on mobile